sensor_id;sensor_type;location;lat;lon;timestamp;temperature;humidity
13794;DHT22;31160;49.500;7.772;2023-02-18T00:01:00;11.00;99.90
13794;DHT22;31160;49.500;7.772;2023-02-18T00:03:28;10.90;99.90
13794;DHT22;31160;49.500;7.772;2023-02-18T00:05:56;10.80;99.90
13794;DHT22;31160;49.500;7.772;2023-02-18T00:08:22;10.90;99.90
13794;DHT22;31160;49.500;7.772;2023-02-18T00:10:49;10.90;99.90
13794;DHT22;31160;49.500;7.772;2023-02-18T00:13:16;10.90;99.90
13794;DHT22;31160;49.500;7.772;2023-02-18T00:15:43;10.80;99.90
13794;DHT22;31160;49.500;7.772;2023-02-18T00:18:09;10.90;99.90
13794;DHT22;31160;49.500;7.772;2023-02-18T00:20:38;10.90;99.90
13794;DHT22;31160;49.500;7.772;2023-02-18T00:23:05;10.90;99.90
13794;DHT22;31160;49.500;7.772;2023-02-18T00:25:32;10.90;99.90
13794;DHT22;31160;49.500;7.772;2023-02-18T00:27:58;11.00;99.90
13794;DHT22;31160;49.500;7.772;2023-02-18T00:30:25;10.90;99.90
13794;DHT22;31160;49.500;7.772;2023-02-18T00:32:54;11.00;99.90
13794;DHT22;31160;49.500;7.772;2023-02-18T00:35:21;11.10;99.90
13794;DHT22;31160;49.500;7.772;2023-02-18T00:37:50;11.00;99.90
13794;DHT22;31160;49.500;7.772;2023-02-18T00:40:19;11.00;99.90
13794;DHT22;31160;49.500;7.772;2023-02-18T00:42:46;11.10;99.90
13794;DHT22;31160;49.500;7.772;2023-02-18T00:45:13;11.10;99.90
13794;DHT22;31160;49.500;7.772;2023-02-18T00:47:40;11.00;99.90
13794;DHT22;31160;49.500;7.772;2023-02-18T00:50:08;11.00;99.90
13794;DHT22;31160;49.500;7.772;2023-02-18T00:52:35;11.00;99.90
13794;DHT22;31160;49.500;7.772;2023-02-18T00:55:02;11.10;99.90
13794;DHT22;31160;49.500;7.772;2023-02-18T00:57:29;11.00;99.90
13794;DHT22;31160;49.500;7.772;2023-02-18T00:59:56;11.10;99.90
13794;DHT22;31160;49.500;7.772;2023-02-18T01:02:22;11.00;99.90
13794;DHT22;31160;49.500;7.772;2023-02-18T01:04:49;11.00;99.90
13794;DHT22;31160;49.500;7.772;2023-02-18T01:07:16;11.00;99.90
13794;DHT22;31160;49.500;7.772;2023-02-18T01:09:43;11.00;99.90
13794;DHT22;31160;49.500;7.772;2023-02-18T01:12:10;11.00;99.90
13794;DHT22;31160;49.500;7.772;2023-02-18T01:14:36;11.10;99.90
13794;DHT22;31160;49.500;7.772;2023-02-18T01:17:04;11.20;99.90
13794;DHT22;31160;49.500;7.772;2023-02-18T01:19:30;11.20;99.90
13794;DHT22;31160;49.500;7.772;2023-02-18T01:21:58;11.30;99.90
13794;DHT22;31160;49.500;7.772;2023-02-18T01:24:25;11.20;99.90
13794;DHT22;31160;49.500;7.772;2023-02-18T01:26:52;11.20;99.90
13794;DHT22;31160;49.500;7.772;2023-02-18T01:29:19;11.30;99.90
13794;DHT22;31160;49.500;7.772;2023-02-18T01:31:45;11.40;99.90
13794;DHT22;31160;49.500;7.772;2023-02-18T01:34:13;11.30;99.90
13794;DHT22;31160;49.500;7.772;2023-02-18T01:36:40;11.20;99.90
13794;DHT22;31160;49.500;7.772;2023-02-18T01:39:07;11.20;99.90
13794;DHT22;31160;49.500;7.772;2023-02-18T01:41:34;11.20;99.90
13794;DHT22;31160;49.500;7.772;2023-02-18T01:44:18;11.00;99.90
13794;DHT22;31160;49.500;7.772;2023-02-18T01:46:45;11.10;99.90
13794;DHT22;31160;49.500;7.772;2023-02-18T01:49:17;11.00;99.90
13794;DHT22;31160;49.500;7.772;2023-02-18T01:51:49;11.00;99.90
13794;DHT22;31160;49.500;7.772;2023-02-18T01:57:04;11.00;99.90
13794;DHT22;31160;49.500;7.772;2023-02-18T01:59:45;11.00;99.90
13794;DHT22;31160;49.500;7.772;2023-02-18T02:02:17;10.80;99.90
13794;DHT22;31160;49.500;7.772;2023-02-18T02:04:44;10.80;99.90
13794;DHT22;31160;49.500;7.772;2023-02-18T02:07:12;10.70;99.90
13794;DHT22;31160;49.500;7.772;2023-02-18T02:09:40;10.60;99.90
13794;DHT22;31160;49.500;7.772;2023-02-18T02:18:33;10.50;99.90
13794;DHT22;31160;49.500;7.772;2023-02-18T02:35:23;10.60;99.90
13794;DHT22;31160;49.500;7.772;2023-02-18T02:38:24;10.70;99.90
13794;DHT22;31160;49.500;7.772;2023-02-18T02:41:11;10.70;99.90
13794;DHT22;31160;49.500;7.772;2023-02-18T02:46:36;10.60;99.90
13794;DHT22;31160;49.500;7.772;2023-02-18T02:49:47;10.60;99.90
13794;DHT22;31160;49.500;7.772;2023-02-18T02:52:21;10.80;99.90
13794;DHT22;31160;49.500;7.772;2023-02-18T02:54:48;10.80;99.90
13794;DHT22;31160;49.500;7.772;2023-02-18T03:00:00;10.70;99.90
13794;DHT22;31160;49.500;7.772;2023-02-18T03:12:59;10.90;99.90
13794;DHT22;31160;49.500;7.772;2023-02-18T03:15:48;10.70;99.90
13794;DHT22;31160;49.500;7.772;2023-02-18T03:18:45;10.60;99.90
13794;DHT22;31160;49.500;7.772;2023-02-18T03:21:20;10.70;99.90
13794;DHT22;31160;49.500;7.772;2023-02-18T03:24:02;10.70;99.90
13794;DHT22;31160;49.500;7.772;2023-02-18T03:26:33;10.80;99.90
13794;DHT22;31160;49.500;7.772;2023-02-18T03:29:04;10.60;99.90
13794;DHT22;31160;49.500;7.772;2023-02-18T03:31:35;10.70;99.90
13794;DHT22;31160;49.500;7.772;2023-02-18T03:34:08;10.50;99.90
13794;DHT22;31160;49.500;7.772;2023-02-18T03:36:37;10.70;99.90
13794;DHT22;31160;49.500;7.772;2023-02-18T03:39:13;10.50;99.90
13794;DHT22;31160;49.500;7.772;2023-02-18T03:41:41;10.50;99.90
13794;DHT22;31160;49.500;7.772;2023-02-18T03:44:09;10.50;99.90
13794;DHT22;31160;49.500;7.772;2023-02-18T03:46:39;10.60;99.90
13794;DHT22;31160;49.500;7.772;2023-02-18T03:49:06;10.50;99.90
13794;DHT22;31160;49.500;7.772;2023-02-18T03:51:34;10.50;99.90
13794;DHT22;31160;49.500;7.772;2023-02-18T03:54:00;10.60;99.90
13794;DHT22;31160;49.500;7.772;2023-02-18T03:56:27;10.60;99.90
13794;DHT22;31160;49.500;7.772;2023-02-18T03:58:54;10.50;99.90
13794;DHT22;31160;49.500;7.772;2023-02-18T04:01:21;10.50;99.90
13794;DHT22;31160;49.500;7.772;2023-02-18T04:03:48;10.60;99.90
13794;DHT22;31160;49.500;7.772;2023-02-18T04:06:15;10.70;99.90
13794;DHT22;31160;49.500;7.772;2023-02-18T04:08:41;10.70;99.90
13794;DHT22;31160;49.500;7.772;2023-02-18T04:11:08;10.60;99.90
13794;DHT22;31160;49.500;7.772;2023-02-18T04:13:35;10.70;99.90
13794;DHT22;31160;49.500;7.772;2023-02-18T04:16:02;10.70;99.90
13794;DHT22;31160;49.500;7.772;2023-02-18T04:18:28;10.80;99.90
13794;DHT22;31160;49.500;7.772;2023-02-18T04:20:55;10.70;99.90
13794;DHT22;31160;49.500;7.772;2023-02-18T04:23:22;10.60;99.90
13794;DHT22;31160;49.500;7.772;2023-02-18T04:25:48;10.80;99.90
13794;DHT22;31160;49.500;7.772;2023-02-18T04:28:15;10.80;99.90
13794;DHT22;31160;49.500;7.772;2023-02-18T04:30:43;10.70;99.90
13794;DHT22;31160;49.500;7.772;2023-02-18T04:33:10;10.80;99.90
13794;DHT22;31160;49.500;7.772;2023-02-18T04:35:37;10.80;99.90
13794;DHT22;31160;49.500;7.772;2023-02-18T04:38:09;10.80;99.90
13794;DHT22;31160;49.500;7.772;2023-02-18T04:40:36;10.70;99.90
13794;DHT22;31160;49.500;7.772;2023-02-18T04:43:03;10.70;99.90
13794;DHT22;31160;49.500;7.772;2023-02-18T04:45:30;10.60;99.90
13794;DHT22;31160;49.500;7.772;2023-02-18T04:47:57;10.60;99.90
13794;DHT22;31160;49.500;7.772;2023-02-18T04:50:23;10.60;99.90
13794;DHT22;31160;49.500;7.772;2023-02-18T04:52:50;10.50;99.90
13794;DHT22;31160;49.500;7.772;2023-02-18T04:55:17;10.50;99.90
13794;DHT22;31160;49.500;7.772;2023-02-18T04:57:43;10.50;99.90
13794;DHT22;31160;49.500;7.772;2023-02-18T05:00:15;10.50;99.90
13794;DHT22;31160;49.500;7.772;2023-02-18T05:02:42;10.40;99.90
13794;DHT22;31160;49.500;7.772;2023-02-18T05:05:09;10.40;99.90
13794;DHT22;31160;49.500;7.772;2023-02-18T05:07:36;10.50;99.90
13794;DHT22;31160;49.500;7.772;2023-02-18T05:10:03;10.40;99.90
13794;DHT22;31160;49.500;7.772;2023-02-18T05:12:30;10.40;99.90
13794;DHT22;31160;49.500;7.772;2023-02-18T05:14:57;10.50;99.90
13794;DHT22;31160;49.500;7.772;2023-02-18T05:17:23;10.50;99.90
13794;DHT22;31160;49.500;7.772;2023-02-18T05:19:50;10.50;99.90
13794;DHT22;31160;49.500;7.772;2023-02-18T05:22:17;10.50;99.90
13794;DHT22;31160;49.500;7.772;2023-02-18T05:24:43;10.50;99.90
13794;DHT22;31160;49.500;7.772;2023-02-18T05:27:10;10.60;99.90
13794;DHT22;31160;49.500;7.772;2023-02-18T05:29:37;10.60;99.90
13794;DHT22;31160;49.500;7.772;2023-02-18T05:32:04;10.60;99.90
13794;DHT22;31160;49.500;7.772;2023-02-18T05:34:30;10.70;99.90
13794;DHT22;31160;49.500;7.772;2023-02-18T05:36:57;10.50;99.90
13794;DHT22;31160;49.500;7.772;2023-02-18T05:39:24;10.50;99.90
13794;DHT22;31160;49.500;7.772;2023-02-18T05:41:50;10.60;99.90
13794;DHT22;31160;49.500;7.772;2023-02-18T05:44:17;10.60;99.90
13794;DHT22;31160;49.500;7.772;2023-02-18T05:46:57;10.40;99.90
13794;DHT22;31160;49.500;7.772;2023-02-18T05:49:24;10.40;99.90
13794;DHT22;31160;49.500;7.772;2023-02-18T05:51:51;10.30;99.90
13794;DHT22;31160;49.500;7.772;2023-02-18T05:54:18;10.30;99.90
13794;DHT22;31160;49.500;7.772;2023-02-18T05:56:44;10.30;99.90
13794;DHT22;31160;49.500;7.772;2023-02-18T05:59:11;10.30;99.90
13794;DHT22;31160;49.500;7.772;2023-02-18T06:01:38;10.30;99.90
13794;DHT22;31160;49.500;7.772;2023-02-18T06:04:05;10.50;99.90
13794;DHT22;31160;49.500;7.772;2023-02-18T06:06:32;10.50;99.90
13794;DHT22;31160;49.500;7.772;2023-02-18T06:08:59;10.30;99.90
13794;DHT22;31160;49.500;7.772;2023-02-18T06:11:25;10.40;99.90
13794;DHT22;31160;49.500;7.772;2023-02-18T06:13:52;10.40;99.90
13794;DHT22;31160;49.500;7.772;2023-02-18T06:16:19;10.40;99.90
13794;DHT22;31160;49.500;7.772;2023-02-18T06:18:46;10.50;99.90
13794;DHT22;31160;49.500;7.772;2023-02-18T06:21:12;10.40;99.90
13794;DHT22;31160;49.500;7.772;2023-02-18T06:23:39;10.40;99.90
13794;DHT22;31160;49.500;7.772;2023-02-18T06:26:06;10.60;99.90
13794;DHT22;31160;49.500;7.772;2023-02-18T06:28:33;10.50;99.90
13794;DHT22;31160;49.500;7.772;2023-02-18T06:31:00;10.40;99.90
13794;DHT22;31160;49.500;7.772;2023-02-18T06:33:27;10.60;99.90
13794;DHT22;31160;49.500;7.772;2023-02-18T06:35:59;10.60;99.90
13794;DHT22;31160;49.500;7.772;2023-02-18T06:38:26;10.50;99.90
13794;DHT22;31160;49.500;7.772;2023-02-18T06:40:53;10.50;99.90
13794;DHT22;31160;49.500;7.772;2023-02-18T06:43:20;10.40;99.90
13794;DHT22;31160;49.500;7.772;2023-02-18T06:45:47;10.50;99.90
13794;DHT22;31160;49.500;7.772;2023-02-18T06:48:14;10.30;99.90
13794;DHT22;31160;49.500;7.772;2023-02-18T06:50:42;10.30;99.90
13794;DHT22;31160;49.500;7.772;2023-02-18T06:53:09;10.30;99.90
13794;DHT22;31160;49.500;7.772;2023-02-18T06:55:36;10.30;99.90
13794;DHT22;31160;49.500;7.772;2023-02-18T06:58:04;10.40;99.90
13794;DHT22;31160;49.500;7.772;2023-02-18T07:00:30;10.50;99.90
13794;DHT22;31160;49.500;7.772;2023-02-18T07:02:57;10.50;99.90
13794;DHT22;31160;49.500;7.772;2023-02-18T07:05:25;10.50;99.90
13794;DHT22;31160;49.500;7.772;2023-02-18T07:07:51;10.60;99.90
13794;DHT22;31160;49.500;7.772;2023-02-18T07:10:18;10.50;99.90
13794;DHT22;31160;49.500;7.772;2023-02-18T07:12:45;10.50;99.90
13794;DHT22;31160;49.500;7.772;2023-02-18T07:15:12;10.60;99.90
13794;DHT22;31160;49.500;7.772;2023-02-18T07:17:38;10.60;99.90
13794;DHT22;31160;49.500;7.772;2023-02-18T07:20:06;10.70;99.90
13794;DHT22;31160;49.500;7.772;2023-02-18T07:22:33;10.60;99.90
13794;DHT22;31160;49.500;7.772;2023-02-18T07:24:59;10.60;99.90
13794;DHT22;31160;49.500;7.772;2023-02-18T07:27:26;10.70;99.90
13794;DHT22;31160;49.500;7.772;2023-02-18T07:29:53;10.80;99.90
13794;DHT22;31160;49.500;7.772;2023-02-18T07:32:20;10.90;99.90
13794;DHT22;31160;49.500;7.772;2023-02-18T07:34:46;10.90;99.90
13794;DHT22;31160;49.500;7.772;2023-02-18T07:37:13;11.00;99.90
13794;DHT22;31160;49.500;7.772;2023-02-18T07:39:41;11.00;99.90
13794;DHT22;31160;49.500;7.772;2023-02-18T07:42:09;11.00;99.90
13794;DHT22;31160;49.500;7.772;2023-02-18T07:44:37;10.90;99.90
13794;DHT22;31160;49.500;7.772;2023-02-18T07:47:05;10.90;99.90
13794;DHT22;31160;49.500;7.772;2023-02-18T07:49:32;10.90;99.90
13794;DHT22;31160;49.500;7.772;2023-02-18T07:51:59;10.90;99.90
13794;DHT22;31160;49.500;7.772;2023-02-18T07:54:26;10.90;99.90
13794;DHT22;31160;49.500;7.772;2023-02-18T07:56:53;10.90;99.90
13794;DHT22;31160;49.500;7.772;2023-02-18T07:59:20;11.00;99.90
13794;DHT22;31160;49.500;7.772;2023-02-18T08:01:47;11.00;99.90
13794;DHT22;31160;49.500;7.772;2023-02-18T08:04:13;11.10;99.90
13794;DHT22;31160;49.500;7.772;2023-02-18T08:06:46;11.00;99.90
13794;DHT22;31160;49.500;7.772;2023-02-18T08:09:13;11.00;99.90
13794;DHT22;31160;49.500;7.772;2023-02-18T08:11:40;11.20;99.90
13794;DHT22;31160;49.500;7.772;2023-02-18T08:14:07;10.90;99.90
13794;DHT22;31160;49.500;7.772;2023-02-18T08:16:34;10.90;99.90
13794;DHT22;31160;49.500;7.772;2023-02-18T08:19:02;10.90;99.90
13794;DHT22;31160;49.500;7.772;2023-02-18T08:21:30;10.80;99.90
13794;DHT22;31160;49.500;7.772;2023-02-18T08:23:58;10.90;99.90
13794;DHT22;31160;49.500;7.772;2023-02-18T08:26:25;11.00;99.90
13794;DHT22;31160;49.500;7.772;2023-02-18T08:28:52;11.10;99.90
13794;DHT22;31160;49.500;7.772;2023-02-18T08:31:25;11.10;99.90
13794;DHT22;31160;49.500;7.772;2023-02-18T08:33:54;11.10;99.90
13794;DHT22;31160;49.500;7.772;2023-02-18T08:36:21;11.10;99.90
13794;DHT22;31160;49.500;7.772;2023-02-18T08:38:48;11.10;99.90
13794;DHT22;31160;49.500;7.772;2023-02-18T08:41:15;11.20;99.90
13794;DHT22;31160;49.500;7.772;2023-02-18T08:43:45;11.50;99.90
13794;DHT22;31160;49.500;7.772;2023-02-18T08:46:12;11.50;99.90
13794;DHT22;31160;49.500;7.772;2023-02-18T08:48:44;11.50;99.90
13794;DHT22;31160;49.500;7.772;2023-02-18T08:51:17;11.30;99.90
13794;DHT22;31160;49.500;7.772;2023-02-18T08:53:44;11.40;99.90
13794;DHT22;31160;49.500;7.772;2023-02-18T08:56:14;11.50;99.90
13794;DHT22;31160;49.500;7.772;2023-02-18T08:58:41;11.40;99.90
13794;DHT22;31160;49.500;7.772;2023-02-18T09:01:10;11.40;99.90
13794;DHT22;31160;49.500;7.772;2023-02-18T09:03:37;11.40;99.90
13794;DHT22;31160;49.500;7.772;2023-02-18T09:06:05;11.50;99.90
13794;DHT22;31160;49.500;7.772;2023-02-18T09:08:32;11.60;99.90
13794;DHT22;31160;49.500;7.772;2023-02-18T09:11:01;11.80;99.90
13794;DHT22;31160;49.500;7.772;2023-02-18T09:13:30;11.70;99.90
13794;DHT22;31160;49.500;7.772;2023-02-18T09:16:06;11.70;99.90
13794;DHT22;31160;49.500;7.772;2023-02-18T09:18:33;11.60;99.90
13794;DHT22;31160;49.500;7.772;2023-02-18T09:21:03;11.80;99.90
13794;DHT22;31160;49.500;7.772;2023-02-18T09:23:31;11.90;99.90
13794;DHT22;31160;49.500;7.772;2023-02-18T09:25:58;11.90;99.90
13794;DHT22;31160;49.500;7.772;2023-02-18T09:28:25;12.00;99.90
13794;DHT22;31160;49.500;7.772;2023-02-18T09:30:52;12.00;99.90
13794;DHT22;31160;49.500;7.772;2023-02-18T09:33:19;11.90;99.90
13794;DHT22;31160;49.500;7.772;2023-02-18T09:35:46;11.80;99.90
13794;DHT22;31160;49.500;7.772;2023-02-18T09:38:15;11.70;99.90
13794;DHT22;31160;49.500;7.772;2023-02-18T09:40:49;11.80;99.90
13794;DHT22;31160;49.500;7.772;2023-02-18T09:43:26;11.70;99.90
13794;DHT22;31160;49.500;7.772;2023-02-18T09:45:55;11.70;99.90
13794;DHT22;31160;49.500;7.772;2023-02-18T09:48:26;11.70;99.90
13794;DHT22;31160;49.500;7.772;2023-02-18T09:50:54;11.80;99.90
13794;DHT22;31160;49.500;7.772;2023-02-18T09:53:23;11.80;99.90
13794;DHT22;31160;49.500;7.772;2023-02-18T09:55:51;11.70;99.90
13794;DHT22;31160;49.500;7.772;2023-02-18T09:58:25;11.80;99.90
13794;DHT22;31160;49.500;7.772;2023-02-18T10:01:04;11.80;99.90
13794;DHT22;31160;49.500;7.772;2023-02-18T10:03:31;11.80;99.90
13794;DHT22;31160;49.500;7.772;2023-02-18T10:06:03;11.80;99.90
13794;DHT22;31160;49.500;7.772;2023-02-18T10:08:41;11.70;99.90
13794;DHT22;31160;49.500;7.772;2023-02-18T10:11:15;11.80;99.90
13794;DHT22;31160;49.500;7.772;2023-02-18T10:13:43;12.00;99.90
13794;DHT22;31160;49.500;7.772;2023-02-18T10:16:15;12.10;99.90
13794;DHT22;31160;49.500;7.772;2023-02-18T10:18:45;12.30;99.90
13794;DHT22;31160;49.500;7.772;2023-02-18T10:21:32;12.40;99.90
13794;DHT22;31160;49.500;7.772;2023-02-18T10:26:53;12.00;99.90
13794;DHT22;31160;49.500;7.772;2023-02-18T10:29:39;12.00;99.90
13794;DHT22;31160;49.500;7.772;2023-02-18T10:32:10;12.30;99.90
13794;DHT22;31160;49.500;7.772;2023-02-18T10:34:47;12.50;99.90
13794;DHT22;31160;49.500;7.772;2023-02-18T10:40:45;12.30;99.90
13794;DHT22;31160;49.500;7.772;2023-02-18T10:46:17;12.30;99.90
13794;DHT22;31160;49.500;7.772;2023-02-18T10:49:22;12.40;99.90
13794;DHT22;31160;49.500;7.772;2023-02-18T10:51:55;12.20;99.90
13794;DHT22;31160;49.500;7.772;2023-02-18T10:54:24;12.30;99.90
13794;DHT22;31160;49.500;7.772;2023-02-18T10:56:53;12.50;99.90
13794;DHT22;31160;49.500;7.772;2023-02-18T10:59:32;12.50;99.90
13794;DHT22;31160;49.500;7.772;2023-02-18T11:02:02;12.70;99.90
13794;DHT22;31160;49.500;7.772;2023-02-18T11:04:38;12.90;99.90
13794;DHT22;31160;49.500;7.772;2023-02-18T11:07:12;12.60;99.90
13794;DHT22;31160;49.500;7.772;2023-02-18T11:09:42;12.70;99.90
13794;DHT22;31160;49.500;7.772;2023-02-18T11:12:58;12.90;99.90
13794;DHT22;31160;49.500;7.772;2023-02-18T11:15:06;13.00;99.90
13794;DHT22;31160;49.500;7.772;2023-02-18T11:17:34;12.80;99.90
13794;DHT22;31160;49.500;7.772;2023-02-18T11:20:33;13.00;99.90
13794;DHT22;31160;49.500;7.772;2023-02-18T11:25:35;13.00;99.90
13794;DHT22;31160;49.500;7.772;2023-02-18T11:30:40;13.20;99.90
13794;DHT22;31160;49.500;7.772;2023-02-18T11:33:20;13.00;99.90
13794;DHT22;31160;49.500;7.772;2023-02-18T11:35:55;13.10;99.90
13794;DHT22;31160;49.500;7.772;2023-02-18T11:38:27;13.50;99.90
13794;DHT22;31160;49.500;7.772;2023-02-18T11:40:56;13.60;99.90
13794;DHT22;31160;49.500;7.772;2023-02-18T11:43:28;13.70;99.90
13794;DHT22;31160;49.500;7.772;2023-02-18T11:48:41;13.90;99.90
13794;DHT22;31160;49.500;7.772;2023-02-18T11:51:17;14.00;99.90
13794;DHT22;31160;49.500;7.772;2023-02-18T11:53:54;14.00;99.90
13794;DHT22;31160;49.500;7.772;2023-02-18T11:56:21;13.60;99.90
13794;DHT22;31160;49.500;7.772;2023-02-18T11:58:49;13.30;99.90
13794;DHT22;31160;49.500;7.772;2023-02-18T12:01:41;13.20;99.90
13794;DHT22;31160;49.500;7.772;2023-02-18T12:04:17;13.10;99.90
13794;DHT22;31160;49.500;7.772;2023-02-18T12:09:48;13.20;99.90
13794;DHT22;31160;49.500;7.772;2023-02-18T12:12:23;13.30;99.90
13794;DHT22;31160;49.500;7.772;2023-02-18T12:14:54;13.50;99.90
13794;DHT22;31160;49.500;7.772;2023-02-18T12:17:39;13.60;99.90
13794;DHT22;31160;49.500;7.772;2023-02-18T12:22:56;13.90;99.90
13794;DHT22;31160;49.500;7.772;2023-02-18T12:31:00;13.20;99.90
13794;DHT22;31160;49.500;7.772;2023-02-18T12:36:15;13.40;99.90
13794;DHT22;31160;49.500;7.772;2023-02-18T13:06:54;13.80;99.90
13794;DHT22;31160;49.500;7.772;2023-02-18T13:09:52;13.80;99.90
13794;DHT22;31160;49.500;7.772;2023-02-18T13:12:38;14.00;99.90
13794;DHT22;31160;49.500;7.772;2023-02-18T13:15:35;14.20;99.90
13794;DHT22;31160;49.500;7.772;2023-02-18T13:18:07;13.80;99.90
13794;DHT22;31160;49.500;7.772;2023-02-18T13:21:02;13.50;99.90
13794;DHT22;31160;49.500;7.772;2023-02-18T13:23:55;13.50;99.90
13794;DHT22;31160;49.500;7.772;2023-02-18T13:26:23;13.30;99.90
13794;DHT22;31160;49.500;7.772;2023-02-18T13:32:26;13.10;99.90
13794;DHT22;31160;49.500;7.772;2023-02-18T13:35:04;13.20;99.90
13794;DHT22;31160;49.500;7.772;2023-02-18T13:38:31;13.40;99.90
13794;DHT22;31160;49.500;7.772;2023-02-18T13:41:01;13.40;99.90
13794;DHT22;31160;49.500;7.772;2023-02-18T13:43:33;13.30;99.90
13794;DHT22;31160;49.500;7.772;2023-02-18T13:46:07;13.40;99.90
13794;DHT22;31160;49.500;7.772;2023-02-18T13:49:02;13.30;99.90
13794;DHT22;31160;49.500;7.772;2023-02-18T13:56:43;13.10;99.90
13794;DHT22;31160;49.500;7.772;2023-02-18T14:01:50;13.50;99.90
13794;DHT22;31160;49.500;7.772;2023-02-18T14:09:57;13.00;99.90
13794;DHT22;31160;49.500;7.772;2023-02-18T14:26:51;12.90;99.90
13794;DHT22;31160;49.500;7.772;2023-02-18T14:28:55;12.70;99.90
13794;DHT22;31160;49.500;7.772;2023-02-18T14:31:35;12.80;99.90
13794;DHT22;31160;49.500;7.772;2023-02-18T14:37:02;12.90;99.90
13794;DHT22;31160;49.500;7.772;2023-02-18T14:42:33;12.40;99.90
13794;DHT22;31160;49.500;7.772;2023-02-18T14:50:34;12.50;99.90
13794;DHT22;31160;49.500;7.772;2023-02-18T14:53:05;12.50;99.90
13794;DHT22;31160;49.500;7.772;2023-02-18T14:55:36;12.40;99.90
13794;DHT22;31160;49.500;7.772;2023-02-18T15:00:51;12.30;99.90
13794;DHT22;31160;49.500;7.772;2023-02-18T15:03:20;12.30;99.90
13794;DHT22;31160;49.500;7.772;2023-02-18T15:05:51;12.30;99.90
13794;DHT22;31160;49.500;7.772;2023-02-18T15:08:22;12.20;99.90
13794;DHT22;31160;49.500;7.772;2023-02-18T15:10:52;12.20;99.90
13794;DHT22;31160;49.500;7.772;2023-02-18T15:13:28;12.10;99.90
13794;DHT22;31160;49.500;7.772;2023-02-18T15:15:59;12.00;99.90
13794;DHT22;31160;49.500;7.772;2023-02-18T15:18:34;11.80;99.90
13794;DHT22;31160;49.500;7.772;2023-02-18T15:21:04;11.80;99.90
13794;DHT22;31160;49.500;7.772;2023-02-18T15:23:35;11.70;99.90
13794;DHT22;31160;49.500;7.772;2023-02-18T15:26:04;11.60;99.90
13794;DHT22;31160;49.500;7.772;2023-02-18T15:28:32;11.60;99.90
13794;DHT22;31160;49.500;7.772;2023-02-18T15:31:01;11.70;99.90
13794;DHT22;31160;49.500;7.772;2023-02-18T15:33:28;11.60;99.90
13794;DHT22;31160;49.500;7.772;2023-02-18T15:36:03;11.40;99.90
13794;DHT22;31160;49.500;7.772;2023-02-18T15:38:30;11.30;99.90
13794;DHT22;31160;49.500;7.772;2023-02-18T15:40:58;11.20;99.90
13794;DHT22;31160;49.500;7.772;2023-02-18T15:43:25;11.30;99.90
13794;DHT22;31160;49.500;7.772;2023-02-18T15:45:57;11.40;99.90
13794;DHT22;31160;49.500;7.772;2023-02-18T15:51:03;11.50;99.90
13794;DHT22;31160;49.500;7.772;2023-02-18T15:53:45;11.40;99.90
13794;DHT22;31160;49.500;7.772;2023-02-18T15:56:19;11.20;99.90
13794;DHT22;31160;49.500;7.772;2023-02-18T15:58:47;11.10;99.90
13794;DHT22;31160;49.500;7.772;2023-02-18T16:01:43;11.00;99.90
13794;DHT22;31160;49.500;7.772;2023-02-18T16:04:13;11.10;99.90
13794;DHT22;31160;49.500;7.772;2023-02-18T16:06:47;11.10;99.90
13794;DHT22;31160;49.500;7.772;2023-02-18T16:09:33;11.10;99.90
13794;DHT22;31160;49.500;7.772;2023-02-18T16:12:02;11.20;99.90
13794;DHT22;31160;49.500;7.772;2023-02-18T16:14:44;11.10;99.90
13794;DHT22;31160;49.500;7.772;2023-02-18T16:19:53;11.10;99.90
13794;DHT22;31160;49.500;7.772;2023-02-18T16:25:05;11.10;99.90
13794;DHT22;31160;49.500;7.772;2023-02-18T16:27:37;11.10;99.90
13794;DHT22;31160;49.500;7.772;2023-02-18T16:30:17;11.20;99.90
13794;DHT22;31160;49.500;7.772;2023-02-18T16:32:44;11.10;99.90
13794;DHT22;31160;49.500;7.772;2023-02-18T16:35:11;11.10;99.90
13794;DHT22;31160;49.500;7.772;2023-02-18T16:37:40;11.00;99.90
13794;DHT22;31160;49.500;7.772;2023-02-18T16:42:52;10.90;99.90
13794;DHT22;31160;49.500;7.772;2023-02-18T16:45:20;10.80;99.90
13794;DHT22;31160;49.500;7.772;2023-02-18T16:47:49;10.80;99.90
13794;DHT22;31160;49.500;7.772;2023-02-18T16:50:19;10.80;99.90
13794;DHT22;31160;49.500;7.772;2023-02-18T16:52:47;10.80;99.90
13794;DHT22;31160;49.500;7.772;2023-02-18T16:55:22;10.70;99.90
13794;DHT22;31160;49.500;7.772;2023-02-18T16:57:50;10.80;99.90
13794;DHT22;31160;49.500;7.772;2023-02-18T17:00:17;10.70;99.90
13794;DHT22;31160;49.500;7.772;2023-02-18T17:02:49;10.80;99.90
13794;DHT22;31160;49.500;7.772;2023-02-18T17:05:22;10.80;99.90
13794;DHT22;31160;49.500;7.772;2023-02-18T17:07:53;10.70;99.90
13794;DHT22;31160;49.500;7.772;2023-02-18T17:10:20;10.50;99.90
13794;DHT22;31160;49.500;7.772;2023-02-18T17:12:46;10.50;99.90
13794;DHT22;31160;49.500;7.772;2023-02-18T17:17:43;10.50;99.90
13794;DHT22;31160;49.500;7.772;2023-02-18T17:20:09;10.60;99.90
13794;DHT22;31160;49.500;7.772;2023-02-18T17:22:43;10.50;99.90
13794;DHT22;31160;49.500;7.772;2023-02-18T17:25:13;10.60;99.90
13794;DHT22;31160;49.500;7.772;2023-02-18T17:27:40;10.60;99.90
13794;DHT22;31160;49.500;7.772;2023-02-18T17:30:07;10.50;99.90
13794;DHT22;31160;49.500;7.772;2023-02-18T17:32:35;10.60;99.90
13794;DHT22;31160;49.500;7.772;2023-02-18T17:35:02;10.70;99.90
13794;DHT22;31160;49.500;7.772;2023-02-18T17:37:28;10.60;99.90
13794;DHT22;31160;49.500;7.772;2023-02-18T17:39:55;10.40;99.90
13794;DHT22;31160;49.500;7.772;2023-02-18T17:42:22;10.50;99.90
13794;DHT22;31160;49.500;7.772;2023-02-18T17:44:48;10.60;99.90
13794;DHT22;31160;49.500;7.772;2023-02-18T17:47:15;10.50;99.90
13794;DHT22;31160;49.500;7.772;2023-02-18T17:49:42;10.60;99.90
13794;DHT22;31160;49.500;7.772;2023-02-18T17:52:25;10.60;99.90
13794;DHT22;31160;49.500;7.772;2023-02-18T17:54:53;10.60;99.90
13794;DHT22;31160;49.500;7.772;2023-02-18T17:57:20;10.40;99.90
13794;DHT22;31160;49.500;7.772;2023-02-18T17:59:47;10.50;99.90
13794;DHT22;31160;49.500;7.772;2023-02-18T18:02:26;10.40;99.90
13794;DHT22;31160;49.500;7.772;2023-02-18T18:04:54;10.30;99.90
13794;DHT22;31160;49.500;7.772;2023-02-18T18:07:21;10.20;99.90
13794;DHT22;31160;49.500;7.772;2023-02-18T18:09:47;10.20;99.90
13794;DHT22;31160;49.500;7.772;2023-02-18T18:12:15;10.20;99.90
13794;DHT22;31160;49.500;7.772;2023-02-18T18:14:42;10.10;99.90
13794;DHT22;31160;49.500;7.772;2023-02-18T18:17:12;10.10;99.90
13794;DHT22;31160;49.500;7.772;2023-02-18T18:19:39;10.00;99.90
13794;DHT22;31160;49.500;7.772;2023-02-18T18:22:07;10.10;99.90
13794;DHT22;31160;49.500;7.772;2023-02-18T18:24:34;10.20;99.90
13794;DHT22;31160;49.500;7.772;2023-02-18T18:27:00;10.30;99.90